createdAt,value
2018-09-23T00:02:12.101Z,74.90
2018-09-23T00:04:40.589Z,75.80
2018-09-23T00:07:09.155Z,76.60
2018-09-23T00:09:37.723Z,77.10
2018-09-23T00:12:05.985Z,77.20
2018-09-23T00:14:34.496Z,78.30
2018-09-23T00:17:03.039Z,79.00
2018-09-23T00:19:31.578Z,78.70
2018-09-23T00:22:00.064Z,79.30
2018-09-23T00:24:28.593Z,80.80
2018-09-23T00:26:57.067Z,81.30
2018-09-23T00:29:31.056Z,82.30
2018-09-23T00:32:00.033Z,82.40
2018-09-23T00:34:28.634Z,82.40
2018-09-23T00:36:57.150Z,82.20
2018-09-23T00:39:25.693Z,82.20
2018-09-23T00:41:54.646Z,83.00
2018-09-23T00:44:23.180Z,83.70
2018-09-23T00:46:51.846Z,84.70
2018-09-23T00:49:20.366Z,84.50
2018-09-23T00:51:48.856Z,83.80
2018-09-23T00:54:17.383Z,83.60
2018-09-23T00:56:45.893Z,84.00
2018-09-23T00:59:14.397Z,84.60
2018-09-23T01:01:42.939Z,84.70
2018-09-23T01:04:11.460Z,85.50
2018-09-23T01:06:40.040Z,86.10
2018-09-23T01:09:09.683Z,86.40
2018-09-23T01:11:38.527Z,86.40
2018-09-23T01:14:07.188Z,86.20
2018-09-23T01:16:35.692Z,85.20
2018-09-23T01:19:04.289Z,85.90
2018-09-23T01:21:32.812Z,86.00
2018-09-23T01:24:01.360Z,86.30
2018-09-23T01:26:29.863Z,86.10
2018-09-23T01:28:58.376Z,86.40
2018-09-23T01:31:26.905Z,85.80
2018-09-23T01:33:55.414Z,86.20
2018-09-23T01:36:23.916Z,85.90
2018-09-23T01:38:52.409Z,85.80
2018-09-23T01:41:20.955Z,85.80
2018-09-23T01:43:49.482Z,85.60
2018-09-23T01:46:17.955Z,86.10
2018-09-23T01:48:46.660Z,85.80
2018-09-23T01:51:15.439Z,85.60
2018-09-23T01:53:43.891Z,84.90
2018-09-23T01:56:12.375Z,84.90
2018-09-23T01:58:40.936Z,85.60
2018-09-23T02:01:09.394Z,85.20
2018-09-23T02:03:37.874Z,84.70
2018-09-23T02:06:06.364Z,84.90
2018-09-23T02:08:34.814Z,86.00
2018-09-23T02:11:03.303Z,85.20
2018-09-23T02:13:31.760Z,85.00
2018-09-23T02:16:00.244Z,85.00
2018-09-23T02:18:28.707Z,85.10
2018-09-23T02:20:57.174Z,84.80
2018-09-23T02:23:25.652Z,84.60
2018-09-23T02:25:54.454Z,84.90
2018-09-23T02:28:22.924Z,84.10
2018-09-23T02:30:51.391Z,84.20
2018-09-23T02:33:19.887Z,84.70
2018-09-23T02:35:48.353Z,84.40
2018-09-23T02:38:16.875Z,84.00
2018-09-23T02:40:45.371Z,84.00
2018-09-23T02:43:13.884Z,84.10
2018-09-23T02:45:42.363Z,84.50
2018-09-23T02:48:10.876Z,83.80
2018-09-23T02:50:39.467Z,84.00
2018-09-23T02:53:08.031Z,84.00
2018-09-23T02:55:36.534Z,83.90
2018-09-23T02:58:05.061Z,83.80
2018-09-23T03:00:33.554Z,83.90
2018-09-23T03:03:02.068Z,82.90
2018-09-23T03:05:30.540Z,83.30
2018-09-23T03:07:59.015Z,83.80
2018-09-23T03:10:27.451Z,83.50
2018-09-23T03:12:55.950Z,83.10
2018-09-23T03:15:24.471Z,83.20
2018-09-23T03:17:52.942Z,83.90
2018-09-23T03:20:21.431Z,83.60
2018-09-23T03:22:49.901Z,84.30
2018-09-23T03:25:18.383Z,83.90
2018-09-23T03:27:46.872Z,83.70
2018-09-23T03:30:15.374Z,83.60
2018-09-23T03:32:43.818Z,83.90
2018-09-23T03:35:12.283Z,84.00
2018-09-23T03:37:41.049Z,84.20
2018-09-23T03:40:09.690Z,84.40
2018-09-23T03:42:38.192Z,84.70
2018-09-23T03:45:06.734Z,84.30
2018-09-23T03:47:35.338Z,84.20
2018-09-23T03:50:04.306Z,84.50
2018-09-23T03:52:32.780Z,85.20
2018-09-23T03:55:01.240Z,84.50
2018-09-23T03:57:29.787Z,84.60
2018-09-23T03:59:58.247Z,84.80
2018-09-23T04:02:26.714Z,83.90
2018-09-23T04:04:55.172Z,84.20
2018-09-23T04:07:23.668Z,84.00
2018-09-23T04:09:52.115Z,84.30
2018-09-23T04:12:20.662Z,84.50
2018-09-23T04:14:50.082Z,83.80
2018-09-23T04:17:18.577Z,84.10
2018-09-23T04:19:47.043Z,83.80
2018-09-23T04:22:15.523Z,83.80
2018-09-23T04:24:44.001Z,83.70
2018-09-23T04:27:12.475Z,83.70
2018-09-23T04:29:40.972Z,83.70
2018-09-23T04:32:09.443Z,83.40
2018-09-23T04:34:37.908Z,83.50
2018-09-23T04:37:06.426Z,83.20
2018-09-23T04:39:34.895Z,83.60
2018-09-23T04:42:03.723Z,83.50
2018-09-23T04:44:32.247Z,83.70
2018-09-23T04:47:00.747Z,83.30
2018-09-23T04:49:29.211Z,83.40
2018-09-23T04:51:57.693Z,83.50
2018-09-23T04:54:26.187Z,83.50
2018-09-23T04:56:54.647Z,83.60
2018-09-23T04:59:23.126Z,83.60
2018-09-23T05:01:51.605Z,83.50
2018-09-23T05:04:20.109Z,83.50
2018-09-23T05:06:48.624Z,83.40
2018-09-23T05:09:17.241Z,83.50
2018-09-23T05:11:45.723Z,83.50
2018-09-23T05:14:14.192Z,83.30
2018-09-23T05:16:42.700Z,83.30
2018-09-23T05:19:11.227Z,83.50
2018-09-23T05:21:39.771Z,83.20
2018-09-23T05:24:08.230Z,83.50
2018-09-23T05:26:36.695Z,83.40
2018-09-23T05:29:05.389Z,83.40
2018-09-23T05:31:33.834Z,83.60
2018-09-23T05:34:02.334Z,83.20
2018-09-23T05:36:30.815Z,83.20
2018-09-23T05:38:59.299Z,82.90
2018-09-23T05:41:27.766Z,83.20
2018-09-23T05:43:56.293Z,83.00
2018-09-23T05:46:25.050Z,83.00
2018-09-23T05:48:53.530Z,82.80
2018-09-23T05:51:22.011Z,82.80
2018-09-23T05:53:50.838Z,82.70
2018-09-23T05:56:19.398Z,82.80
2018-09-23T05:58:47.867Z,82.60
2018-09-23T06:01:16.438Z,82.30
2018-09-23T06:03:44.947Z,82.20
2018-09-23T06:06:13.404Z,82.30
2018-09-23T06:08:41.897Z,82.30
2018-09-23T06:11:10.684Z,82.10
2018-09-23T06:13:39.144Z,82.70
2018-09-23T06:16:07.671Z,82.10
2018-09-23T06:18:36.259Z,81.50
2018-09-23T06:21:05.004Z,81.70
2018-09-23T06:23:33.447Z,82.00
2018-09-23T06:26:01.933Z,82.00
2018-09-23T06:28:30.371Z,81.80
2018-09-23T06:30:58.847Z,81.50
2018-09-23T06:33:27.321Z,81.20
2018-09-23T06:35:55.810Z,81.10
2018-09-23T06:38:24.284Z,80.90
2018-09-23T06:40:52.961Z,80.50
2018-09-23T06:43:21.450Z,80.70
2018-09-23T06:45:50.494Z,80.60
2018-09-23T06:48:19.096Z,80.80
2018-09-23T06:50:47.567Z,80.40
2018-09-23T06:53:16.035Z,80.10
2018-09-23T06:55:44.535Z,80.00
2018-09-23T06:58:12.996Z,80.10
2018-09-23T07:00:41.487Z,80.00
2018-09-23T07:03:09.967Z,79.10
2018-09-23T07:05:38.445Z,78.90
2018-09-23T07:08:07.558Z,79.50
2018-09-23T07:10:36.059Z,79.40
2018-09-23T07:13:04.544Z,78.70
2018-09-23T07:15:33.046Z,78.30
2018-09-23T07:18:01.495Z,78.30
2018-09-23T07:20:30.002Z,79.20
2018-09-23T07:22:58.465Z,78.70
2018-09-23T07:25:26.994Z,78.90
2018-09-23T07:27:55.751Z,78.90
2018-09-23T07:30:24.325Z,78.80
2018-09-23T07:32:52.804Z,78.00
2018-09-23T07:35:21.386Z,78.10
2018-09-23T07:37:49.838Z,77.50
2018-09-23T07:40:18.359Z,78.20
2018-09-23T07:42:46.859Z,78.30
2018-09-23T07:45:15.314Z,77.80
2018-09-23T07:47:43.799Z,77.40
2018-09-23T07:50:12.302Z,77.80
2018-09-23T07:52:40.752Z,77.40
2018-09-23T07:55:09.255Z,76.70
2018-09-23T07:57:37.787Z,76.20
2018-09-23T08:00:06.334Z,75.50
2018-09-23T08:02:34.823Z,75.50
2018-09-23T08:05:03.322Z,76.10
2018-09-23T08:07:31.791Z,75.60
2018-09-23T08:10:00.298Z,75.70
2018-09-23T08:12:28.879Z,74.30
2018-09-23T08:14:57.745Z,74.50
2018-09-23T08:17:26.120Z,74.30
2018-09-23T08:19:54.779Z,73.90
2018-09-23T08:22:23.095Z,74.00
2018-09-23T08:24:51.598Z,73.80
2018-09-23T08:27:20.040Z,73.70
2018-09-23T08:29:48.494Z,73.10
2018-09-23T08:32:16.962Z,72.60
2018-09-23T08:34:45.445Z,73.50
2018-09-23T08:37:14.257Z,73.40
2018-09-23T08:39:42.739Z,73.20
2018-09-23T08:42:11.227Z,73.10
2018-09-23T08:44:39.717Z,71.90
2018-09-23T08:47:08.162Z,72.80
2018-09-23T08:49:36.665Z,72.30
2018-09-23T08:52:05.177Z,72.70
2018-09-23T08:54:33.682Z,73.30
2018-09-23T08:57:02.375Z,72.20
2018-09-23T08:59:30.972Z,72.50
2018-09-23T09:01:59.451Z,71.80
2018-09-23T09:04:27.955Z,72.10
2018-09-23T09:06:56.443Z,71.70
2018-09-23T09:09:24.910Z,73.00
2018-09-23T09:11:53.386Z,70.30
2018-09-23T09:14:21.911Z,71.00
2018-09-23T09:16:50.399Z,70.20
2018-09-23T09:19:19.320Z,70.90
2018-09-23T09:21:47.807Z,71.70
2018-09-23T09:24:16.260Z,72.00
2018-09-23T09:26:44.787Z,73.30
2018-09-23T09:29:13.267Z,73.70
2018-09-23T09:31:41.898Z,73.80
2018-09-23T09:34:10.626Z,73.10
2018-09-23T09:36:39.131Z,74.00
2018-09-23T09:39:09.495Z,74.40
2018-09-23T09:41:38.194Z,74.20
2018-09-23T09:44:06.850Z,75.40
2018-09-23T09:46:35.459Z,74.10
2018-09-23T09:49:04.219Z,74.30
2018-09-23T09:51:33.138Z,72.50
2018-09-23T09:54:01.623Z,74.10
2018-09-23T09:56:30.127Z,73.10
2018-09-23T09:58:58.620Z,72.80
2018-09-23T10:01:27.125Z,72.90
2018-09-23T10:03:55.676Z,73.30
2018-09-23T10:06:24.098Z,72.20
2018-09-23T10:08:52.582Z,72.60
2018-09-23T10:11:21.141Z,75.90
2018-09-23T10:13:49.902Z,76.20
2018-09-23T10:16:18.383Z,75.90
2018-09-23T10:18:46.874Z,76.90
2018-09-23T10:21:15.327Z,77.70
2018-09-23T10:23:43.939Z,77.00
2018-09-23T10:26:12.379Z,76.70
2018-09-23T10:28:41.295Z,76.50
2018-09-23T10:31:09.891Z,76.80
2018-09-23T10:33:38.355Z,76.70
2018-09-23T10:36:06.927Z,78.00
2018-09-23T10:38:35.460Z,79.90
2018-09-23T10:41:03.950Z,79.30
2018-09-23T10:43:32.446Z,80.60
2018-09-23T10:46:00.944Z,81.30
2018-09-23T10:48:29.505Z,82.50
2018-09-23T10:50:58.311Z,80.00
2018-09-23T10:53:26.830Z,79.90
2018-09-23T10:55:55.551Z,82.20
2018-09-23T10:58:24.530Z,84.80
2018-09-23T11:00:53.050Z,84.60
2018-09-23T11:03:21.531Z,84.40
2018-09-23T11:05:50.083Z,85.20
2018-09-23T11:08:18.550Z,87.70
2018-09-23T11:10:47.031Z,87.00
2018-09-23T11:13:15.476Z,88.00
2018-09-23T11:15:44.002Z,84.00
2018-09-23T11:18:12.467Z,86.40
2018-09-23T11:20:40.969Z,86.50
2018-09-23T11:23:09.786Z,85.50
2018-09-23T11:25:38.273Z,83.70
2018-09-23T11:28:06.759Z,81.80
2018-09-23T11:30:35.280Z,83.40
2018-09-23T11:33:04.028Z,83.30
2018-09-23T11:35:32.510Z,81.80
2018-09-23T11:38:01.032Z,81.80
2018-09-23T11:40:29.519Z,79.70
2018-09-23T11:42:58.024Z,81.50
2018-09-23T11:45:26.560Z,82.00
2018-09-23T11:47:55.015Z,80.50
2018-09-23T11:50:23.486Z,80.50
2018-09-23T11:52:52.140Z,79.20
2018-09-23T11:55:20.669Z,79.40
2018-09-23T11:57:49.179Z,80.20
2018-09-23T12:00:17.682Z,80.50
2018-09-23T12:02:46.207Z,78.90
2018-09-23T12:05:14.678Z,78.50
2018-09-23T12:07:43.219Z,79.50
2018-09-23T12:10:11.714Z,79.10
2018-09-23T12:12:40.186Z,78.50
2018-09-23T12:15:08.706Z,78.20
2018-09-23T12:17:37.182Z,78.60
2018-09-23T12:20:05.728Z,78.70
2018-09-23T12:22:34.229Z,79.30
2018-09-23T12:25:02.701Z,78.00
2018-09-23T12:27:31.197Z,77.70
2018-09-23T12:29:59.683Z,76.40
2018-09-23T12:32:28.153Z,76.70
2018-09-23T12:34:56.632Z,79.30
2018-09-23T12:37:25.157Z,79.60
2018-09-23T12:39:53.935Z,79.50
2018-09-23T12:42:22.455Z,78.90
2018-09-23T12:44:50.931Z,78.60
2018-09-23T12:47:19.415Z,77.20
2018-09-23T12:49:47.888Z,77.50
2018-09-23T12:52:16.627Z,79.20
2018-09-23T12:54:45.099Z,77.90
2018-09-23T12:57:13.576Z,78.40
2018-09-23T12:59:42.039Z,79.60
2018-09-23T13:02:10.520Z,80.80
2018-09-23T13:04:38.990Z,80.60
2018-09-23T13:07:07.450Z,83.30
2018-09-23T13:09:35.912Z,83.90
2018-09-23T13:12:04.411Z,83.50
2018-09-23T13:14:32.886Z,84.20
2018-09-23T13:17:01.385Z,86.00
2018-09-23T13:19:29.896Z,86.60
2018-09-23T13:21:58.379Z,87.50
2018-09-23T13:24:26.899Z,88.50
2018-09-23T13:26:55.391Z,89.10
2018-09-23T13:29:23.874Z,89.40
2018-09-23T13:31:52.346Z,89.70
2018-09-23T13:34:20.823Z,90.00
2018-09-23T13:36:49.286Z,90.70
2018-09-23T13:39:17.769Z,90.90
2018-09-23T13:41:46.271Z,91.10
2018-09-23T13:44:14.757Z,91.60
2018-09-23T13:46:43.242Z,91.30
2018-09-23T13:49:11.699Z,91.80
2018-09-23T13:51:40.191Z,91.90
2018-09-23T13:54:08.673Z,92.10
2018-09-23T13:56:37.167Z,92.30
2018-09-23T13:59:05.640Z,92.40
2018-09-23T14:01:34.133Z,92.70
2018-09-23T14:04:02.639Z,92.70
2018-09-23T14:06:31.391Z,92.90
2018-09-23T14:08:59.871Z,92.70
2018-09-23T14:11:28.359Z,93.00
2018-09-23T14:13:56.810Z,93.70
2018-09-23T14:16:25.280Z,93.80
2018-09-23T14:18:53.765Z,94.20
2018-09-23T14:21:22.290Z,94.30
2018-09-23T14:23:51.035Z,94.40
2018-09-23T14:26:19.697Z,94.40
2018-09-23T14:28:48.730Z,94.70
2018-09-23T14:31:17.262Z,94.90
2018-09-23T14:33:45.747Z,94.60
2018-09-23T14:36:14.287Z,94.60
2018-09-23T14:38:42.746Z,94.80
2018-09-23T14:41:11.222Z,94.80
2018-09-23T14:43:39.882Z,94.70
2018-09-23T14:46:08.472Z,94.70
2018-09-23T14:48:36.945Z,94.50
2018-09-23T14:51:05.599Z,94.80
2018-09-23T14:53:34.090Z,95.10
2018-09-23T14:56:02.617Z,95.50
2018-09-23T14:58:31.082Z,95.60
2018-09-23T15:00:59.643Z,95.30
2018-09-23T15:03:28.106Z,95.40
2018-09-23T15:05:56.590Z,95.60
2018-09-23T15:08:25.069Z,96.20
2018-09-23T15:10:53.562Z,96.40
2018-09-23T15:13:22.022Z,96.30
2018-09-23T15:15:50.650Z,95.70
2018-09-23T15:18:19.124Z,95.40
2018-09-23T15:20:47.606Z,95.60
2018-09-23T15:23:16.155Z,95.70
2018-09-23T15:25:44.654Z,95.80
2018-09-23T15:28:13.118Z,95.70
2018-09-23T15:30:41.607Z,95.50
2018-09-23T15:33:10.116Z,95.60
2018-09-23T15:35:38.743Z,95.50
2018-09-23T15:38:07.255Z,95.80
2018-09-23T15:40:35.735Z,96.00
2018-09-23T15:43:04.202Z,96.00
2018-09-23T15:45:32.662Z,96.10
2018-09-23T15:48:01.157Z,96.00
2018-09-23T15:50:29.641Z,95.90
2018-09-23T15:52:58.160Z,96.10
2018-09-23T15:55:26.652Z,96.40
2018-09-23T15:57:55.196Z,96.00
2018-09-23T16:00:23.666Z,96.30
2018-09-23T16:02:52.134Z,96.10
2018-09-23T16:05:20.616Z,96.00
2018-09-23T16:07:49.152Z,96.30
2018-09-23T16:10:17.572Z,96.30
2018-09-23T16:12:46.068Z,96.40
2018-09-23T16:15:14.548Z,96.40
2018-09-23T16:17:43.049Z,96.10
2018-09-23T16:20:11.519Z,96.00
2018-09-23T16:22:40.295Z,96.10
2018-09-23T16:25:08.866Z,96.30
2018-09-23T16:27:37.345Z,96.20
2018-09-23T16:30:05.884Z,96.50
2018-09-23T16:32:34.351Z,96.30
2018-09-23T16:35:03.099Z,96.30
2018-09-23T16:37:31.625Z,96.50
2018-09-23T16:40:00.082Z,96.60
2018-09-23T16:42:28.593Z,96.40
2018-09-23T16:44:57.076Z,96.50
2018-09-23T16:47:25.615Z,96.70
2018-09-23T16:49:54.093Z,96.60
2018-09-23T16:52:22.552Z,96.50
2018-09-23T16:54:51.092Z,96.70
2018-09-23T16:57:19.589Z,96.50
2018-09-23T16:59:48.247Z,96.50
2018-09-23T17:02:16.758Z,96.50
2018-09-23T17:04:45.218Z,96.20
2018-09-23T17:07:14.041Z,96.40
2018-09-23T17:09:42.458Z,96.20
2018-09-23T17:12:10.915Z,96.30
2018-09-23T17:14:39.386Z,96.70
2018-09-23T17:17:07.864Z,96.70
2018-09-23T17:19:36.366Z,96.90
2018-09-23T17:22:04.861Z,96.70
2018-09-23T17:24:33.340Z,96.90
2018-09-23T17:27:01.839Z,96.80
2018-09-23T17:29:30.404Z,96.70
2018-09-23T17:31:58.904Z,96.90
2018-09-23T17:34:27.818Z,96.80
2018-09-23T17:36:56.283Z,97.10
2018-09-23T17:39:24.761Z,97.00
2018-09-23T17:41:53.249Z,96.80
2018-09-23T17:44:21.713Z,96.60
2018-09-23T17:46:50.194Z,97.10
2018-09-23T17:49:18.852Z,96.90
2018-09-23T17:51:47.500Z,96.70
2018-09-23T17:54:16.023Z,97.10
2018-09-23T17:56:44.853Z,97.40
2018-09-23T17:59:13.372Z,97.20
2018-09-23T18:01:41.891Z,96.70
2018-09-23T18:04:10.409Z,97.10
2018-09-23T18:06:38.951Z,97.50
2018-09-23T18:09:09.372Z,96.70
2018-09-23T18:11:38.453Z,96.80
2018-09-23T18:14:06.966Z,96.90
2018-09-23T18:16:35.447Z,96.90
2018-09-23T18:19:04.001Z,97.00
2018-09-23T18:21:32.598Z,97.20
2018-09-23T18:24:01.095Z,97.20
2018-09-23T18:26:29.603Z,97.20
2018-09-23T18:28:58.115Z,97.60
2018-09-23T18:31:26.599Z,97.50
2018-09-23T18:33:55.141Z,97.20
2018-09-23T18:36:23.607Z,97.50
2018-09-23T18:38:52.084Z,97.50
2018-09-23T18:41:20.623Z,97.50
2018-09-23T18:43:49.152Z,97.70
2018-09-23T18:46:17.643Z,98.20
2018-09-23T18:48:46.197Z,98.00
2018-09-23T18:51:14.715Z,97.40
2018-09-23T18:53:48.779Z,97.50
2018-09-23T18:56:17.298Z,97.80
2018-09-23T18:58:45.812Z,97.80
2018-09-23T19:01:14.350Z,97.90
2018-09-23T19:03:42.824Z,98.00
2018-09-23T19:06:11.371Z,97.90
2018-09-23T19:08:39.888Z,97.70
2018-09-23T19:11:08.407Z,97.40
2018-09-23T19:13:42.256Z,97.20
2018-09-23T19:16:16.291Z,97.20
2018-09-23T19:18:44.839Z,97.30
2018-09-23T19:21:13.354Z,96.90
2018-09-23T19:23:41.825Z,96.60
2018-09-23T19:26:10.358Z,96.80
2018-09-23T19:28:38.854Z,96.40
2018-09-23T19:31:07.918Z,96.60
2018-09-23T19:33:36.442Z,96.90
2018-09-23T19:36:04.932Z,96.40
2018-09-23T19:38:33.739Z,97.10
2018-09-23T19:41:02.271Z,96.90
2018-09-23T19:43:31.137Z,96.70
2018-09-23T19:45:59.628Z,97.10
2018-09-23T19:48:28.381Z,96.70
2018-09-23T19:50:56.886Z,96.70
2018-09-23T19:53:25.399Z,96.10
2018-09-23T19:55:53.934Z,97.00
2018-09-23T19:58:22.456Z,96.60
2018-09-23T20:00:51.275Z,96.90
2018-09-23T20:03:19.811Z,96.90
2018-09-23T20:05:48.303Z,97.10
2018-09-23T20:08:16.831Z,97.60
2018-09-23T20:10:45.390Z,96.60
2018-09-23T20:13:13.896Z,96.80
2018-09-23T20:15:42.402Z,96.50
2018-09-23T20:18:11.232Z,96.80
2018-09-23T20:20:39.703Z,96.90
2018-09-23T20:23:08.208Z,97.30
2018-09-23T20:25:37.005Z,97.60
2018-09-23T20:28:05.504Z,97.40
2018-09-23T20:30:33.976Z,97.00
2018-09-23T20:33:02.542Z,96.90
2018-09-23T20:35:31.080Z,96.70
2018-09-23T20:37:59.847Z,97.10
2018-09-23T20:40:28.352Z,96.60
2018-09-23T20:42:56.823Z,96.70
2018-09-23T20:45:25.346Z,96.30
2018-09-23T20:47:53.867Z,96.10
2018-09-23T20:50:22.391Z,96.30
2018-09-23T20:52:50.912Z,96.80
2018-09-23T20:55:19.418Z,96.40
2018-09-23T20:57:47.976Z,97.00
2018-09-23T21:00:16.475Z,96.10
2018-09-23T21:02:44.947Z,96.30
2018-09-23T21:05:13.462Z,95.90
2018-09-23T21:07:41.944Z,96.10
2018-09-23T21:10:10.462Z,95.90
2018-09-23T21:12:39.096Z,95.30
2018-09-23T21:15:08.536Z,96.10
2018-09-23T21:17:37.236Z,96.00
2018-09-23T21:20:06.286Z,95.70
2018-09-23T21:22:34.803Z,96.10
2018-09-23T21:25:04.246Z,95.70
2018-09-23T21:27:32.848Z,96.00
2018-09-23T21:30:01.341Z,95.50
2018-09-23T21:32:29.837Z,95.80
2018-09-23T21:34:58.332Z,96.40
2018-09-23T21:37:26.821Z,96.70
2018-09-23T21:39:55.346Z,96.30
2018-09-23T21:42:23.855Z,96.10
2018-09-23T21:44:52.366Z,96.50
2018-09-23T21:47:20.912Z,96.80
2018-09-23T21:49:49.395Z,97.00
2018-09-23T21:52:17.919Z,96.90
2018-09-23T21:54:46.464Z,96.30
2018-09-23T21:57:14.971Z,96.80
2018-09-23T21:59:43.453Z,97.30
2018-09-23T22:02:11.994Z,97.00
2018-09-23T22:04:40.460Z,97.00
2018-09-23T22:07:08.946Z,97.20
2018-09-23T22:09:37.459Z,96.40
2018-09-23T22:12:06.277Z,96.80
2018-09-23T22:14:34.787Z,96.40
2018-09-23T22:17:03.668Z,96.70
2018-09-23T22:19:32.171Z,96.20
2018-09-23T22:22:00.667Z,96.60
2018-09-23T22:24:29.189Z,96.70
2018-09-23T22:26:57.799Z,96.60
2018-09-23T22:29:26.572Z,96.40
2018-09-23T22:31:55.113Z,96.50
2018-09-23T22:34:23.748Z,96.70
2018-09-23T22:36:52.255Z,96.60
2018-09-23T22:39:20.797Z,96.60
2018-09-23T22:41:49.310Z,96.50
2018-09-23T22:44:17.815Z,96.30
2018-09-23T22:46:46.363Z,96.40
2018-09-23T22:49:14.863Z,96.50
2018-09-23T22:51:43.378Z,96.70
2018-09-23T22:54:11.922Z,96.50
2018-09-23T22:56:40.426Z,96.40
2018-09-23T22:59:09.305Z,96.50
2018-09-23T23:01:37.829Z,96.60
2018-09-23T23:04:06.644Z,96.40
2018-09-23T23:06:35.204Z,96.80
2018-09-23T23:09:04.790Z,96.70
2018-09-23T23:11:33.278Z,96.60
2018-09-23T23:14:01.835Z,96.80
2018-09-23T23:16:30.320Z,96.70
2018-09-23T23:18:58.860Z,96.60
2018-09-23T23:21:27.368Z,96.70
2018-09-23T23:23:55.871Z,96.80
2018-09-23T23:26:24.335Z,96.70
2018-09-23T23:28:52.884Z,96.50
2018-09-23T23:31:21.738Z,96.60
2018-09-23T23:33:50.241Z,96.70
2018-09-23T23:36:18.744Z,96.80
2018-09-23T23:38:47.331Z,96.60
2018-09-23T23:41:15.805Z,96.70
2018-09-23T23:43:44.322Z,96.70
2018-09-23T23:46:12.807Z,96.70
2018-09-23T23:48:41.303Z,96.80
2018-09-23T23:51:09.837Z,96.60
2018-09-23T23:53:38.432Z,96.70
2018-09-23T23:56:06.972Z,96.70
2018-09-23T23:58:35.503Z,96.70
